Terminal Aerodrome Forecast
Issued by NWS

Home | Current Version | Previous Version | Text Only | Print | Product List | Glossary On
Versions: 1 2 3 4 5 6 7 8 9 10 11 12 13 14 15
000
FTUS42 KRAH 261933 AAA
TAFINT
TAF AMD
KINT 261933Z 2620/2718 23007KT P6SM SCT050
      TEMPO 2620/2622 VRB10G20KT 6SM TS BKN050CB
     FM270200 21006KT P6SM FEW060 BKN120
     FM271500 24010KT P6SM SCT040 SCT200=

USA.gov is the U.S. government's official web portal to all federal, state and local government web resources and services.